createdAt,value
2023-04-03T00:01:56.706Z,3.63
2023-04-03T00:04:28.734Z,3.50
2023-04-03T00:07:06.010Z,3.60
2023-04-03T00:09:35.413Z,3.30
2023-04-03T00:12:06.400Z,3.57
2023-04-03T00:14:37.947Z,3.23
2023-04-03T00:17:08.293Z,3.30
2023-04-03T00:19:37.299Z,3.30
2023-04-03T00:22:16.943Z,3.60
2023-04-03T00:24:46.368Z,3.13
2023-04-03T00:27:17.316Z,3.70
2023-04-03T00:29:48.081Z,3.50
2023-04-03T00:32:17.659Z,3.60
2023-04-03T00:34:46.280Z,3.40
2023-04-03T00:37:17.048Z,3.40
2023-04-03T00:39:47.596Z,3.17
2023-04-03T00:42:19.782Z,3.60
2023-04-03T00:45:00.328Z,3.53
2023-04-03T00:47:32.965Z,3.50
2023-04-03T00:50:11.115Z,3.40
2023-04-03T00:52:43.806Z,3.50
2023-04-03T00:55:17.242Z,3.40
2023-04-03T00:57:47.778Z,3.60
2023-04-03T01:00:26.648Z,3.60
2023-04-03T01:02:59.034Z,3.20
2023-04-03T01:05:29.177Z,3.57
2023-04-03T01:07:59.356Z,3.50
2023-04-03T01:10:34.857Z,3.47
2023-04-03T01:13:18.352Z,3.60
2023-04-03T01:15:46.844Z,3.50
2023-04-03T01:21:46.759Z,3.23
2023-04-03T01:24:37.266Z,3.30
2023-04-03T01:27:15.432Z,3.47
2023-04-03T01:29:48.110Z,3.30
2023-04-03T01:32:20.593Z,3.70
2023-04-03T01:34:51.506Z,3.77
2023-04-03T01:37:21.320Z,3.73
2023-04-03T01:39:50.329Z,3.63
2023-04-03T01:42:17.736Z,3.50
2023-04-03T01:44:50.692Z,3.67
2023-04-03T01:47:22.098Z,3.50
2023-04-03T01:49:53.144Z,3.57
2023-04-03T01:52:24.160Z,3.43
2023-04-03T01:54:56.689Z,3.63
2023-04-03T01:57:29.493Z,3.67
2023-04-03T02:00:00.688Z,3.47
2023-04-03T02:02:31.769Z,3.67
2023-04-03T02:05:01.745Z,3.87
2023-04-03T02:07:32.152Z,3.70
2023-04-03T02:10:04.119Z,3.70
2023-04-03T02:12:35.347Z,3.63
2023-04-03T02:15:11.499Z,3.83
2023-04-03T02:17:43.493Z,3.83
2023-04-03T02:20:16.093Z,4.10
2023-04-03T02:22:49.184Z,3.80
2023-04-03T02:25:21.964Z,3.97
2023-04-03T02:27:51.450Z,4.00
2023-04-03T02:30:18.724Z,3.73
2023-04-03T02:32:50.436Z,4.10
2023-04-03T02:35:20.482Z,3.77
2023-04-03T02:37:54.930Z,3.83
2023-04-03T02:40:34.990Z,4.03
2023-04-03T02:43:02.347Z,4.20
2023-04-03T02:45:33.825Z,4.00
2023-04-03T02:48:04.687Z,4.07
2023-04-03T02:50:35.490Z,4.20
2023-04-03T02:53:09.715Z,4.10
2023-04-03T02:55:40.275Z,4.20
2023-04-03T02:58:10.167Z,4.27
2023-04-03T03:00:43.092Z,4.07
2023-04-03T03:03:18.453Z,4.00
2023-04-03T03:05:53.920Z,3.97
2023-04-03T03:08:25.887Z,4.00
2023-04-03T03:10:55.851Z,4.00
2023-04-03T03:13:26.146Z,3.70
2023-04-03T03:15:58.181Z,4.10
2023-04-03T03:18:28.664Z,3.83
2023-04-03T03:21:02.052Z,3.93
2023-04-03T03:23:33.124Z,4.10
2023-04-03T03:26:11.492Z,4.10
2023-04-03T03:28:44.584Z,3.90
2023-04-03T03:31:16.482Z,4.40
2023-04-03T03:33:48.918Z,4.30
2023-04-03T03:36:18.270Z,3.97
2023-04-03T03:38:49.582Z,4.20
2023-04-03T03:41:20.749Z,4.20
2023-04-03T03:43:53.494Z,4.40
2023-04-03T03:46:30.561Z,4.13
2023-04-03T03:49:00.608Z,4.10
2023-04-03T03:51:34.510Z,3.93
2023-04-03T03:54:04.205Z,3.97
2023-04-03T03:56:32.832Z,4.20
2023-04-03T03:59:04.351Z,4.20
2023-04-03T04:01:36.445Z,4.50
2023-04-03T04:04:10.616Z,4.07
2023-04-03T04:06:43.352Z,3.90
2023-04-03T04:09:16.797Z,4.20
2023-04-03T04:11:45.036Z,3.87
2023-04-03T04:14:16.585Z,3.97
2023-04-03T04:16:48.568Z,4.50
2023-04-03T04:19:25.317Z,3.70
2023-04-03T04:21:53.607Z,3.70
2023-04-03T04:24:26.435Z,4.07
2023-04-03T04:26:58.398Z,3.67
2023-04-03T04:29:30.513Z,4.00
2023-04-03T04:32:00.557Z,3.90
2023-04-03T04:34:31.692Z,3.63
2023-04-03T04:37:05.075Z,3.63
2023-04-03T04:39:36.570Z,3.70
2023-04-03T04:42:08.551Z,3.67
2023-04-03T04:44:40.879Z,3.80
2023-04-03T04:47:12.135Z,4.00
2023-04-03T04:49:43.801Z,3.50
2023-04-03T04:52:16.017Z,3.73
2023-04-03T04:54:48.105Z,4.00
2023-04-03T04:57:20.763Z,3.93
2023-04-03T04:59:54.070Z,4.10
2023-04-03T05:02:24.476Z,4.27
2023-04-03T05:04:54.463Z,4.10
2023-04-03T05:07:30.851Z,3.80
2023-04-03T05:10:02.444Z,3.80
2023-04-03T05:12:34.678Z,4.00
2023-04-03T05:15:08.204Z,3.60
2023-04-03T05:17:40.648Z,3.67
2023-04-03T05:20:19.568Z,3.27
2023-04-03T05:22:52.100Z,3.27
2023-04-03T05:25:22.684Z,3.40
2023-04-03T05:27:54.537Z,3.57
2023-04-03T05:30:33.963Z,3.47
2023-04-03T05:33:06.777Z,3.57
2023-04-03T05:35:47.960Z,3.90
2023-04-03T05:38:30.148Z,3.50
2023-04-03T05:41:03.420Z,4.60
2023-04-03T05:43:33.589Z,3.83
2023-04-03T05:46:04.914Z,5.47
2023-04-03T05:48:37.119Z,3.97
2023-04-03T05:51:11.393Z,5.10
2023-04-03T05:53:40.800Z,4.13
2023-04-03T05:56:12.888Z,3.67
2023-04-03T05:58:46.857Z,4.07
2023-04-03T06:01:19.963Z,3.77
2023-04-03T06:03:50.332Z,3.70
2023-04-03T06:06:27.476Z,3.50
2023-04-03T06:08:56.954Z,3.87
2023-04-03T06:11:24.186Z,3.53
2023-04-03T06:13:54.754Z,3.80
2023-04-03T06:16:26.279Z,3.30
2023-04-03T06:18:55.406Z,4.40
2023-04-03T06:21:28.568Z,3.40
2023-04-03T06:23:59.613Z,3.73
2023-04-03T06:26:32.609Z,3.70
2023-04-03T06:29:03.372Z,3.40
2023-04-03T06:31:34.057Z,4.30
2023-04-03T06:34:05.035Z,3.83
2023-04-03T06:36:35.537Z,4.30
2023-04-03T06:39:05.003Z,3.90
2023-04-03T06:41:34.228Z,4.10
2023-04-03T06:44:04.797Z,3.73
2023-04-03T06:46:35.618Z,3.90
2023-04-03T06:49:07.511Z,3.90
2023-04-03T06:51:44.349Z,4.20
2023-04-03T06:57:05.567Z,4.40
2023-04-03T06:59:35.485Z,5.30
2023-04-03T07:02:07.094Z,5.23
2023-04-03T07:04:35.039Z,7.10
2023-04-03T07:07:03.497Z,4.53
2023-04-03T07:09:35.312Z,5.70
2023-04-03T07:12:06.984Z,6.80
2023-04-03T07:14:39.424Z,6.57
2023-04-03T07:17:10.486Z,4.20
2023-04-03T07:19:41.525Z,18.10
2023-04-03T07:22:15.622Z,13.00
2023-04-03T07:24:47.552Z,7.30
2023-04-03T07:27:18.434Z,11.07
2023-04-03T07:29:47.574Z,5.23
2023-04-03T07:32:18.658Z,8.30
2023-04-03T07:34:51.613Z,9.00
2023-04-03T07:37:22.398Z,10.30
2023-04-03T07:39:55.248Z,9.40
2023-04-03T07:42:26.006Z,6.63
2023-04-03T07:47:36.197Z,4.87
2023-04-03T07:50:10.451Z,4.50
2023-04-03T07:52:42.790Z,4.50
2023-04-03T07:55:12.388Z,4.43
2023-04-03T07:57:40.785Z,5.13
2023-04-03T08:00:12.227Z,5.30
2023-04-03T08:02:43.968Z,9.57
2023-04-03T08:05:22.021Z,6.83
2023-04-03T08:07:50.167Z,7.10
2023-04-03T08:10:18.179Z,6.60
2023-04-03T08:12:50.446Z,5.90
2023-04-03T08:15:22.312Z,5.23
2023-04-03T08:17:57.926Z,3.90
2023-04-03T08:20:29.380Z,4.93
2023-04-03T08:22:57.722Z,4.20
2023-04-03T08:25:29.430Z,5.47
2023-04-03T08:28:02.725Z,5.10
2023-04-03T08:30:36.630Z,3.40
2023-04-03T08:33:06.129Z,4.00
2023-04-03T08:38:16.365Z,4.10
2023-04-03T08:40:45.698Z,4.10
2023-04-03T08:44:02.579Z,3.27
2023-04-03T08:47:16.789Z,3.77
2023-04-03T08:50:12.634Z,3.23
2023-04-03T08:52:44.393Z,3.40
2023-04-03T08:55:44.093Z,3.60
2023-04-03T08:58:27.656Z,3.30
2023-04-03T09:01:23.989Z,3.50
2023-04-03T09:03:55.048Z,3.43
2023-04-03T09:06:32.260Z,3.50
2023-04-03T09:09:30.046Z,3.13
2023-04-03T09:12:37.789Z,3.67
2023-04-03T09:15:27.894Z,3.67
2023-04-03T09:18:27.369Z,3.70
2023-04-03T09:21:22.277Z,3.50
2023-04-03T09:24:01.824Z,5.00
2023-04-03T09:26:54.748Z,4.00
2023-04-03T09:29:28.405Z,3.23
2023-04-03T09:32:10.804Z,3.10
2023-04-03T09:34:46.532Z,3.30
2023-04-03T09:37:41.145Z,2.80
2023-04-03T09:40:45.101Z,2.57
2023-04-03T09:43:45.243Z,2.63
2023-04-03T09:46:36.467Z,2.70
2023-04-03T09:49:11.987Z,2.60
2023-04-03T09:51:47.387Z,2.77
2023-04-03T09:54:38.869Z,3.00
2023-04-03T09:57:17.212Z,3.57
2023-04-03T10:00:08.840Z,3.20
2023-04-03T10:02:57.271Z,2.43
2023-04-03T10:05:44.762Z,2.70
2023-04-03T10:08:24.536Z,2.70
2023-04-03T10:11:22.488Z,2.60
2023-04-03T10:14:09.563Z,2.50
2023-04-03T10:16:48.248Z,2.87
2023-04-03T10:19:43.653Z,3.20
2023-04-03T10:22:47.254Z,3.10
2023-04-03T10:25:46.852Z,2.90
2023-04-03T10:28:23.070Z,2.73
2023-04-03T10:31:13.659Z,2.70
2023-04-03T10:33:54.412Z,2.50
2023-04-03T10:36:50.190Z,2.50
2023-04-03T10:39:53.454Z,2.80
2023-04-03T10:42:56.279Z,2.60
2023-04-03T10:45:57.241Z,2.90
2023-04-03T10:48:50.550Z,2.77
2023-04-03T10:52:13.718Z,3.00
2023-04-03T10:55:20.512Z,3.10
2023-04-03T10:57:52.107Z,3.00
2023-04-03T11:00:33.572Z,3.03
2023-04-03T11:03:10.257Z,3.20
2023-04-03T11:05:46.252Z,2.90
2023-04-03T11:08:52.006Z,3.17
2023-04-03T11:11:39.228Z,3.17
2023-04-03T11:14:28.477Z,2.90
2023-04-03T11:17:25.362Z,3.10
2023-04-03T11:20:31.732Z,2.63
2023-04-03T11:23:05.435Z,2.73
2023-04-03T11:25:40.976Z,2.70
2023-04-03T11:28:23.392Z,2.80
2023-04-03T11:31:26.684Z,2.80
2023-04-03T11:34:40.889Z,2.90
2023-04-03T11:37:38.633Z,2.63
2023-04-03T11:40:36.649Z,2.87
2023-04-03T11:43:11.027Z,2.90
2023-04-03T11:46:11.708Z,2.80
2023-04-03T11:49:01.090Z,2.70
2023-04-03T11:51:45.508Z,2.70
2023-04-03T11:54:48.741Z,2.80
2023-04-03T11:57:57.249Z,2.97
2023-04-03T12:01:04.942Z,3.10
2023-04-03T12:04:25.519Z,2.90
2023-04-03T12:07:19.917Z,3.60
2023-04-03T12:09:50.485Z,3.10
2023-04-03T12:12:41.962Z,2.90
2023-04-03T12:15:40.648Z,2.93
2023-04-03T12:18:47.440Z,3.20
2023-04-03T12:21:23.622Z,2.93
2023-04-03T12:24:09.570Z,2.57
2023-04-03T12:27:01.584Z,2.90
2023-04-03T12:29:42.180Z,2.70
2023-04-03T12:32:44.901Z,3.07
2023-04-03T12:36:00.623Z,3.07
2023-04-03T12:38:52.286Z,3.77
2023-04-03T12:41:38.083Z,3.40
2023-04-03T12:44:38.555Z,3.50
2023-04-03T12:47:40.798Z,3.43
2023-04-03T12:50:50.034Z,3.90
2023-04-03T12:53:28.392Z,3.27
2023-04-03T12:56:25.073Z,3.20
2023-04-03T12:58:59.039Z,3.20
2023-04-03T13:01:30.829Z,3.30
2023-04-03T13:04:01.564Z,3.33
2023-04-03T13:06:46.248Z,3.30
2023-04-03T13:09:36.602Z,3.37
2023-04-03T13:12:19.301Z,4.70
2023-04-03T13:15:08.234Z,3.87
2023-04-03T13:17:44.914Z,3.97
2023-04-03T13:20:36.087Z,3.03
2023-04-03T13:23:13.332Z,4.10
2023-04-03T13:25:53.684Z,3.10
2023-04-03T13:28:33.322Z,2.90
2023-04-03T13:31:30.830Z,3.37
2023-04-03T13:34:27.448Z,3.20
2023-04-03T13:37:04.101Z,3.17
2023-04-03T13:39:37.129Z,3.40
2023-04-03T13:42:25.083Z,3.10
2023-04-03T13:45:11.929Z,2.80
2023-04-03T13:47:46.293Z,2.53
2023-04-03T13:53:20.096Z,2.60
2023-04-03T13:56:23.394Z,3.00
2023-04-03T13:59:17.624Z,3.00
2023-04-03T14:02:08.796Z,3.10
2023-04-03T14:05:14.578Z,2.80
2023-04-03T14:07:43.992Z,2.77
2023-04-03T14:10:16.006Z,3.00
2023-04-03T14:12:53.748Z,2.50
2023-04-03T14:15:29.573Z,3.20
2023-04-03T14:18:04.442Z,3.10
2023-04-03T14:20:36.907Z,2.70
2023-04-03T14:23:12.389Z,2.80
2023-04-03T14:25:43.750Z,2.80
2023-04-03T14:28:24.007Z,2.87
2023-04-03T14:30:55.896Z,2.43
2023-04-03T14:33:27.599Z,2.90
2023-04-03T14:35:57.857Z,2.87
2023-04-03T14:38:32.648Z,2.77
2023-04-03T14:41:10.071Z,3.03
2023-04-03T14:43:49.389Z,3.30
2023-04-03T14:46:42.969Z,2.70
2023-04-03T14:49:24.139Z,3.00
2023-04-03T14:51:54.197Z,2.70
2023-04-03T14:54:29.348Z,2.77
2023-04-03T14:57:01.866Z,2.80
2023-04-03T14:59:30.097Z,2.90
2023-04-03T15:02:00.414Z,2.90
2023-04-03T15:04:33.522Z,3.00
2023-04-03T15:07:04.745Z,3.00
2023-04-03T15:09:36.414Z,3.10
2023-04-03T15:12:07.091Z,3.03
2023-04-03T15:14:37.357Z,3.27
2023-04-03T15:17:25.396Z,3.30
2023-04-03T15:19:55.521Z,3.33
2023-04-03T15:22:23.771Z,3.03
2023-04-03T15:24:54.824Z,3.20
2023-04-03T15:27:24.486Z,3.10
2023-04-03T15:29:59.928Z,2.90
2023-04-03T15:32:35.718Z,2.80
2023-04-03T15:35:05.651Z,2.50
2023-04-03T15:37:37.022Z,2.43
2023-04-03T15:40:20.794Z,2.90
2023-04-03T15:42:53.900Z,2.83
2023-04-03T15:45:25.516Z,2.47
2023-04-03T15:47:55.767Z,2.70
2023-04-03T15:50:28.145Z,2.80
2023-04-03T15:52:56.456Z,2.87
2023-04-03T15:55:32.930Z,2.47
2023-04-03T15:58:03.823Z,2.37
2023-04-03T16:00:34.509Z,2.50
2023-04-03T16:03:20.667Z,2.90
2023-04-03T16:05:51.292Z,2.63
2023-04-03T16:08:21.912Z,2.50
2023-04-03T16:10:49.378Z,2.60
2023-04-03T16:13:20.162Z,2.90
2023-04-03T16:15:54.676Z,2.67
2023-04-03T16:18:27.481Z,2.40
2023-04-03T16:20:56.704Z,2.90
2023-04-03T16:23:29.922Z,2.60
2023-04-03T16:26:00.641Z,2.70
2023-04-03T16:28:31.619Z,2.50
2023-04-03T16:31:07.828Z,3.20
2023-04-03T16:33:39.494Z,3.30
2023-04-03T16:36:08.817Z,3.00
2023-04-03T16:38:40.506Z,2.63
2023-04-03T16:41:11.438Z,2.50
2023-04-03T16:46:17.410Z,2.80
2023-04-03T16:48:49.912Z,2.77
2023-04-03T16:51:19.666Z,2.90
2023-04-03T16:53:54.025Z,2.90
2023-04-03T16:56:26.367Z,3.27
2023-04-03T16:58:55.651Z,3.00
2023-04-03T17:01:24.755Z,2.73
2023-04-03T17:03:56.131Z,2.67
2023-04-03T17:06:28.669Z,2.70
2023-04-03T17:09:00.703Z,3.00
2023-04-03T17:11:31.285Z,2.93
2023-04-03T17:13:59.389Z,2.80
2023-04-03T17:16:28.976Z,2.77
2023-04-03T17:19:05.141Z,2.70
2023-04-03T17:21:44.386Z,2.97
2023-04-03T17:24:16.665Z,2.90
2023-04-03T17:26:47.484Z,2.80
2023-04-03T17:29:21.519Z,2.90
2023-04-03T17:31:53.513Z,2.80
2023-04-03T17:34:23.934Z,2.70
2023-04-03T17:36:55.562Z,2.77
2023-04-03T17:39:23.797Z,3.30
2023-04-03T17:41:59.005Z,3.37
2023-04-03T17:44:31.943Z,2.60
2023-04-03T17:47:03.702Z,2.77
2023-04-03T17:49:38.244Z,2.87
2023-04-03T17:52:09.760Z,2.40
2023-04-03T17:54:40.497Z,3.23
2023-04-03T17:57:11.129Z,3.00
2023-04-03T17:59:42.903Z,2.70
2023-04-03T18:02:23.224Z,2.67
2023-04-03T18:04:57.375Z,2.83
2023-04-03T18:07:39.199Z,2.57
2023-04-03T18:10:18.849Z,2.93
2023-04-03T18:12:52.270Z,3.10
2023-04-03T18:15:22.504Z,3.50
2023-04-03T18:17:55.524Z,2.87
2023-04-03T18:20:24.344Z,3.33
2023-04-03T18:22:54.002Z,2.90
2023-04-03T18:25:28.015Z,3.00
2023-04-03T18:28:02.602Z,2.60
2023-04-03T18:30:40.159Z,2.70
2023-04-03T18:33:13.528Z,3.60
2023-04-03T18:35:44.897Z,4.90
2023-04-03T18:38:19.662Z,3.07
2023-04-03T18:40:54.773Z,3.00
2023-04-03T18:48:56.520Z,2.80
2023-04-03T18:51:34.489Z,3.13
2023-04-03T18:54:07.197Z,3.10
2023-04-03T18:56:38.165Z,3.30
2023-04-03T19:00:12.971Z,3.10
2023-04-03T19:03:18.106Z,3.40
2023-04-03T19:05:54.424Z,3.60
2023-04-03T19:08:28.144Z,4.73
2023-04-03T19:11:03.814Z,3.40
2023-04-03T19:13:38.976Z,3.17
2023-04-03T19:20:32.190Z,3.10
2023-04-03T19:26:42.311Z,2.90
2023-04-03T19:29:14.983Z,3.03
2023-04-03T19:31:46.794Z,3.23
2023-04-03T19:34:23.118Z,3.03
2023-04-03T19:36:57.957Z,3.03
2023-04-03T19:39:47.348Z,2.90
2023-04-03T19:42:21.624Z,3.10
2023-04-03T19:44:52.879Z,3.03
2023-04-03T19:47:24.220Z,2.83
2023-04-03T19:49:59.315Z,2.93
2023-04-03T19:52:32.451Z,2.67
2023-04-03T19:55:05.756Z,2.93
2023-04-03T19:57:39.794Z,2.70
2023-04-03T20:00:12.673Z,2.70
2023-04-03T20:02:42.790Z,2.80
2023-04-03T20:05:16.820Z,2.90
2023-04-03T20:07:52.751Z,2.90
2023-04-03T20:10:24.593Z,3.00
2023-04-03T20:13:02.795Z,2.93
2023-04-03T20:15:42.946Z,3.00
2023-04-03T20:18:27.638Z,3.10
2023-04-03T20:21:38.845Z,3.10
2023-04-03T20:24:15.622Z,3.10
2023-04-03T20:26:54.614Z,2.97
2023-04-03T20:29:29.374Z,2.90
2023-04-03T20:31:59.313Z,3.00
2023-04-03T20:34:30.502Z,2.93
2023-04-03T20:37:01.512Z,3.30
2023-04-03T20:39:34.629Z,3.47
2023-04-03T20:42:07.793Z,3.13
2023-04-03T20:44:39.304Z,3.20
2023-04-03T20:47:13.150Z,3.30
2023-04-03T20:49:46.356Z,3.07
2023-04-03T20:52:15.195Z,3.10
2023-04-03T20:54:48.095Z,3.10
2023-04-03T20:57:17.969Z,3.20
2023-04-03T20:59:49.665Z,3.47
2023-04-03T21:02:21.969Z,3.17
2023-04-03T21:04:57.557Z,3.27
2023-04-03T21:08:16.899Z,3.30
2023-04-03T21:11:24.834Z,3.17
2023-04-03T21:14:38.602Z,3.20
2023-04-03T21:17:05.983Z,3.40
2023-04-03T21:19:46.738Z,3.10
2023-04-03T21:22:17.326Z,3.23
2023-04-03T21:24:48.445Z,3.30
2023-04-03T21:27:19.316Z,3.37
2023-04-03T21:29:53.405Z,3.57
2023-04-03T21:32:21.042Z,3.20
2023-04-03T21:34:54.386Z,3.30
2023-04-03T21:37:21.939Z,3.33
2023-04-03T21:39:53.430Z,3.37
2023-04-03T21:42:27.205Z,3.33
2023-04-03T21:44:57.665Z,3.43
2023-04-03T21:47:30.568Z,3.40
2023-04-03T21:50:01.155Z,3.07
2023-04-03T21:52:29.202Z,3.43
2023-04-03T21:55:01.206Z,3.20
2023-04-03T21:57:34.780Z,3.20
2023-04-03T22:00:12.151Z,3.30
2023-04-03T22:05:23.383Z,3.27
2023-04-03T22:07:58.426Z,3.40
2023-04-03T22:10:29.958Z,3.50
2023-04-03T22:13:00.725Z,3.60
2023-04-03T22:15:30.908Z,3.40
2023-04-03T22:18:03.440Z,3.37
2023-04-03T22:20:33.117Z,3.40
2023-04-03T22:23:02.558Z,3.50
2023-04-03T22:25:33.159Z,3.20
2023-04-03T22:28:02.872Z,3.50
2023-04-03T22:30:35.932Z,3.60
2023-04-03T22:33:05.550Z,3.77
2023-04-03T22:38:16.732Z,3.73
2023-04-03T22:40:54.754Z,3.60
2023-04-03T22:43:25.810Z,3.57
2023-04-03T22:45:56.199Z,3.40
2023-04-03T22:48:28.790Z,3.47
2023-04-03T22:50:59.412Z,3.80
2023-04-03T22:53:28.826Z,3.60
2023-04-03T22:56:02.477Z,3.50
2023-04-03T22:58:34.172Z,3.80
2023-04-03T23:01:24.244Z,3.50
2023-04-03T23:03:56.462Z,3.43
2023-04-03T23:06:27.667Z,3.60
2023-04-03T23:08:57.428Z,3.27
2023-04-03T23:11:27.074Z,3.50
2023-04-03T23:14:02.007Z,3.63
2023-04-03T23:16:35.001Z,3.70
2023-04-03T23:19:06.511Z,3.60
2023-04-03T23:21:37.656Z,3.47
2023-04-03T23:24:08.512Z,3.60
2023-04-03T23:26:38.305Z,3.50
2023-04-03T23:29:06.497Z,3.50
2023-04-03T23:31:36.760Z,3.77
2023-04-03T23:34:07.883Z,3.50
2023-04-03T23:36:38.801Z,3.40
2023-04-03T23:39:14.239Z,3.13
2023-04-03T23:41:44.381Z,3.60
2023-04-03T23:44:15.485Z,3.47
2023-04-03T23:46:43.901Z,3.40
2023-04-03T23:49:14.660Z,3.30
2023-04-03T23:51:44.067Z,3.80
2023-04-03T23:54:16.510Z,3.33
2023-04-03T23:56:46.701Z,3.40
2023-04-03T23:59:15.029Z,3.37
